sensor_id;sensor_type;location;lat;lon;timestamp;P1;durP1;ratioP1;P2;durP2;ratioP2
45208;SDS011;30951;43.994;26.260;2022-08-30T00:00:38;26.05;;;4.90;;
45208;SDS011;30951;43.994;26.260;2022-08-30T00:03:22;31.35;;;5.10;;
45208;SDS011;30951;43.994;26.260;2022-08-30T00:05:47;20.58;;;5.40;;
45208;SDS011;30951;43.994;26.260;2022-08-30T00:08:13;19.55;;;4.95;;
45208;SDS011;30951;43.994;26.260;2022-08-30T00:10:40;18.08;;;5.00;;
45208;SDS011;30951;43.994;26.260;2022-08-30T00:13:07;26.83;;;5.70;;
45208;SDS011;30951;43.994;26.260;2022-08-30T00:15:33;14.20;;;5.25;;
45208;SDS011;30951;43.994;26.260;2022-08-30T00:17:59;24.00;;;5.20;;
45208;SDS011;30951;43.994;26.260;2022-08-30T00:20:25;17.88;;;5.03;;
45208;SDS011;30951;43.994;26.260;2022-08-30T00:22:53;23.65;;;6.13;;
45208;SDS011;30951;43.994;26.260;2022-08-30T00:25:19;16.30;;;5.38;;
45208;SDS011;30951;43.994;26.260;2022-08-30T00:27:44;18.23;;;5.00;;
45208;SDS011;30951;43.994;26.260;2022-08-30T00:30:10;24.70;;;6.35;;
45208;SDS011;30951;43.994;26.260;2022-08-30T00:32:37;21.02;;;5.45;;
45208;SDS011;30951;43.994;26.260;2022-08-30T00:35:03;17.17;;;5.93;;
45208;SDS011;30951;43.994;26.260;2022-08-30T00:37:29;28.85;;;6.22;;
45208;SDS011;30951;43.994;26.260;2022-08-30T00:39:55;18.63;;;5.68;;
45208;SDS011;30951;43.994;26.260;2022-08-30T00:42:20;26.00;;;6.53;;
45208;SDS011;30951;43.994;26.260;2022-08-30T00:44:46;26.73;;;5.53;;
45208;SDS011;30951;43.994;26.260;2022-08-30T00:47:13;23.42;;;5.93;;
45208;SDS011;30951;43.994;26.260;2022-08-30T00:49:39;21.13;;;5.57;;
45208;SDS011;30951;43.994;26.260;2022-08-30T00:52:06;17.88;;;5.45;;
45208;SDS011;30951;43.994;26.260;2022-08-30T00:54:33;21.15;;;5.88;;
45208;SDS011;30951;43.994;26.260;2022-08-30T00:57:00;19.63;;;6.38;;
45208;SDS011;30951;43.994;26.260;2022-08-30T00:59:26;21.70;;;6.07;;
45208;SDS011;30951;43.994;26.260;2022-08-30T01:01:53;16.63;;;5.13;;
45208;SDS011;30951;43.994;26.260;2022-08-30T01:04:18;28.17;;;6.22;;
45208;SDS011;30951;43.994;26.260;2022-08-30T01:06:45;16.65;;;5.03;;
45208;SDS011;30951;43.994;26.260;2022-08-30T01:09:11;19.25;;;4.72;;
45208;SDS011;30951;43.994;26.260;2022-08-30T01:11:38;24.65;;;5.60;;
45208;SDS011;30951;43.994;26.260;2022-08-30T01:14:04;26.30;;;5.28;;
45208;SDS011;30951;43.994;26.260;2022-08-30T01:16:31;23.85;;;5.15;;
45208;SDS011;30951;43.994;26.260;2022-08-30T01:18:58;25.63;;;5.38;;
45208;SDS011;30951;43.994;26.260;2022-08-30T01:21:30;17.77;;;5.57;;
45208;SDS011;30951;43.994;26.260;2022-08-30T01:24:01;21.85;;;5.00;;
45208;SDS011;30951;43.994;26.260;2022-08-30T01:26:27;18.48;;;5.32;;
45208;SDS011;30951;43.994;26.260;2022-08-30T01:28:55;14.15;;;5.00;;
45208;SDS011;30951;43.994;26.260;2022-08-30T01:31:22;20.20;;;4.85;;
45208;SDS011;30951;43.994;26.260;2022-08-30T01:33:48;28.13;;;5.40;;
45208;SDS011;30951;43.994;26.260;2022-08-30T01:36:14;18.15;;;5.45;;
45208;SDS011;30951;43.994;26.260;2022-08-30T01:38:57;27.35;;;4.95;;
45208;SDS011;30951;43.994;26.260;2022-08-30T01:41:27;19.95;;;5.45;;
45208;SDS011;30951;43.994;26.260;2022-08-30T01:43:55;22.40;;;5.47;;
45208;SDS011;30951;43.994;26.260;2022-08-30T01:46:23;24.35;;;5.53;;
45208;SDS011;30951;43.994;26.260;2022-08-30T01:48:51;23.15;;;5.45;;
45208;SDS011;30951;43.994;26.260;2022-08-30T01:51:17;26.38;;;5.22;;
45208;SDS011;30951;43.994;26.260;2022-08-30T01:53:44;20.60;;;4.93;;
45208;SDS011;30951;43.994;26.260;2022-08-30T01:56:10;23.23;;;4.95;;
45208;SDS011;30951;43.994;26.260;2022-08-30T01:58:36;12.75;;;5.07;;
45208;SDS011;30951;43.994;26.260;2022-08-30T02:01:03;21.65;;;5.43;;
45208;SDS011;30951;43.994;26.260;2022-08-30T02:03:31;20.50;;;5.45;;
45208;SDS011;30951;43.994;26.260;2022-08-30T02:06:06;16.98;;;5.47;;
45208;SDS011;30951;43.994;26.260;2022-08-30T02:08:33;16.85;;;4.43;;
45208;SDS011;30951;43.994;26.260;2022-08-30T02:10:59;28.13;;;5.85;;
45208;SDS011;30951;43.994;26.260;2022-08-30T02:13:25;19.83;;;5.53;;
45208;SDS011;30951;43.994;26.260;2022-08-30T02:15:51;16.60;;;5.32;;
45208;SDS011;30951;43.994;26.260;2022-08-30T02:18:19;20.00;;;5.93;;
45208;SDS011;30951;43.994;26.260;2022-08-30T02:20:45;20.38;;;5.53;;
45208;SDS011;30951;43.994;26.260;2022-08-30T02:23:10;14.73;;;5.38;;
45208;SDS011;30951;43.994;26.260;2022-08-30T02:25:36;25.67;;;5.45;;
45208;SDS011;30951;43.994;26.260;2022-08-30T02:28:02;30.60;;;6.43;;
45208;SDS011;30951;43.994;26.260;2022-08-30T02:30:28;20.08;;;5.60;;
45208;SDS011;30951;43.994;26.260;2022-08-30T02:32:54;16.00;;;6.10;;
45208;SDS011;30951;43.994;26.260;2022-08-30T02:35:19;19.65;;;5.72;;
45208;SDS011;30951;43.994;26.260;2022-08-30T02:37:45;19.15;;;5.88;;
45208;SDS011;30951;43.994;26.260;2022-08-30T02:40:10;21.90;;;6.05;;
45208;SDS011;30951;43.994;26.260;2022-08-30T02:42:36;25.45;;;6.93;;
45208;SDS011;30951;43.994;26.260;2022-08-30T02:45:02;25.10;;;6.47;;
45208;SDS011;30951;43.994;26.260;2022-08-30T02:47:28;32.60;;;7.00;;
45208;SDS011;30951;43.994;26.260;2022-08-30T02:49:53;16.95;;;6.00;;
45208;SDS011;30951;43.994;26.260;2022-08-30T02:52:19;29.38;;;6.70;;
45208;SDS011;30951;43.994;26.260;2022-08-30T02:54:44;30.92;;;7.28;;
45208;SDS011;30951;43.994;26.260;2022-08-30T02:57:10;15.32;;;6.15;;
45208;SDS011;30951;43.994;26.260;2022-08-30T02:59:37;15.15;;;6.93;;
45208;SDS011;30951;43.994;26.260;2022-08-30T03:02:08;15.32;;;6.55;;
45208;SDS011;30951;43.994;26.260;2022-08-30T03:04:35;14.30;;;6.13;;
45208;SDS011;30951;43.994;26.260;2022-08-30T03:07:03;18.85;;;7.43;;
45208;SDS011;30951;43.994;26.260;2022-08-30T03:09:29;28.83;;;6.97;;
45208;SDS011;30951;43.994;26.260;2022-08-30T03:11:55;20.58;;;6.90;;
45208;SDS011;30951;43.994;26.260;2022-08-30T03:14:21;19.00;;;6.50;;
45208;SDS011;30951;43.994;26.260;2022-08-30T03:16:47;25.13;;;7.72;;
45208;SDS011;30951;43.994;26.260;2022-08-30T03:19:12;24.70;;;7.05;;
45208;SDS011;30951;43.994;26.260;2022-08-30T03:21:38;22.42;;;8.10;;
45208;SDS011;30951;43.994;26.260;2022-08-30T03:24:03;20.67;;;7.97;;
45208;SDS011;30951;43.994;26.260;2022-08-30T03:26:29;18.30;;;7.40;;
45208;SDS011;30951;43.994;26.260;2022-08-30T03:28:54;27.35;;;9.25;;
45208;SDS011;30951;43.994;26.260;2022-08-30T03:31:20;29.63;;;10.25;;
45208;SDS011;30951;43.994;26.260;2022-08-30T03:33:45;19.75;;;10.18;;
45208;SDS011;30951;43.994;26.260;2022-08-30T03:36:11;27.52;;;10.20;;
45208;SDS011;30951;43.994;26.260;2022-08-30T03:38:37;22.70;;;8.90;;
45208;SDS011;30951;43.994;26.260;2022-08-30T03:41:03;19.05;;;9.25;;
45208;SDS011;30951;43.994;26.260;2022-08-30T03:43:29;22.63;;;8.32;;
45208;SDS011;30951;43.994;26.260;2022-08-30T03:45:57;25.95;;;7.78;;
45208;SDS011;30951;43.994;26.260;2022-08-30T03:48:24;23.30;;;7.60;;
45208;SDS011;30951;43.994;26.260;2022-08-30T03:50:50;19.55;;;7.28;;
45208;SDS011;30951;43.994;26.260;2022-08-30T03:53:15;20.83;;;6.75;;
45208;SDS011;30951;43.994;26.260;2022-08-30T03:55:41;15.13;;;6.75;;
45208;SDS011;30951;43.994;26.260;2022-08-30T03:58:06;16.45;;;6.32;;
45208;SDS011;30951;43.994;26.260;2022-08-30T04:00:32;28.38;;;6.35;;
45208;SDS011;30951;43.994;26.260;2022-08-30T04:02:58;28.58;;;7.10;;
45208;SDS011;30951;43.994;26.260;2022-08-30T04:05:23;26.38;;;6.10;;
45208;SDS011;30951;43.994;26.260;2022-08-30T04:07:49;29.52;;;7.18;;
45208;SDS011;30951;43.994;26.260;2022-08-30T04:10:14;34.85;;;7.90;;
45208;SDS011;30951;43.994;26.260;2022-08-30T04:12:40;27.70;;;7.03;;
45208;SDS011;30951;43.994;26.260;2022-08-30T04:15:06;20.65;;;5.72;;
45208;SDS011;30951;43.994;26.260;2022-08-30T04:17:34;24.27;;;6.05;;
45208;SDS011;30951;43.994;26.260;2022-08-30T04:20:00;21.73;;;6.72;;
45208;SDS011;30951;43.994;26.260;2022-08-30T04:22:25;24.13;;;6.32;;
45208;SDS011;30951;43.994;26.260;2022-08-30T04:24:51;21.92;;;5.82;;
45208;SDS011;30951;43.994;26.260;2022-08-30T04:27:16;16.05;;;6.15;;
45208;SDS011;30951;43.994;26.260;2022-08-30T04:29:44;29.80;;;6.60;;
45208;SDS011;30951;43.994;26.260;2022-08-30T04:32:11;11.15;;;5.35;;
45208;SDS011;30951;43.994;26.260;2022-08-30T04:34:36;15.27;;;6.55;;
45208;SDS011;30951;43.994;26.260;2022-08-30T04:37:02;16.88;;;5.65;;
45208;SDS011;30951;43.994;26.260;2022-08-30T04:39:28;24.05;;;6.78;;
45208;SDS011;30951;43.994;26.260;2022-08-30T04:41:53;21.67;;;6.57;;
45208;SDS011;30951;43.994;26.260;2022-08-30T04:44:20;21.50;;;5.82;;
45208;SDS011;30951;43.994;26.260;2022-08-30T04:46:46;18.13;;;5.63;;
45208;SDS011;30951;43.994;26.260;2022-08-30T04:49:12;14.70;;;5.63;;
45208;SDS011;30951;43.994;26.260;2022-08-30T04:51:37;23.38;;;6.18;;
45208;SDS011;30951;43.994;26.260;2022-08-30T04:54:03;21.35;;;6.18;;
45208;SDS011;30951;43.994;26.260;2022-08-30T04:56:28;15.60;;;6.20;;
45208;SDS011;30951;43.994;26.260;2022-08-30T04:58:54;19.85;;;5.63;;
45208;SDS011;30951;43.994;26.260;2022-08-30T05:01:27;28.27;;;5.35;;
45208;SDS011;30951;43.994;26.260;2022-08-30T05:03:55;20.40;;;5.68;;
45208;SDS011;30951;43.994;26.260;2022-08-30T05:06:21;22.17;;;5.28;;
45208;SDS011;30951;43.994;26.260;2022-08-30T05:08:48;31.30;;;5.80;;
45208;SDS011;30951;43.994;26.260;2022-08-30T05:11:14;21.90;;;5.72;;
45208;SDS011;30951;43.994;26.260;2022-08-30T05:13:41;20.83;;;6.13;;
45208;SDS011;30951;43.994;26.260;2022-08-30T05:16:07;21.58;;;5.82;;
45208;SDS011;30951;43.994;26.260;2022-08-30T05:18:33;15.65;;;6.30;;
45208;SDS011;30951;43.994;26.260;2022-08-30T05:21:07;15.90;;;5.53;;
45208;SDS011;30951;43.994;26.260;2022-08-30T05:23:35;26.88;;;6.13;;
45208;SDS011;30951;43.994;26.260;2022-08-30T05:26:05;23.65;;;6.47;;
45208;SDS011;30951;43.994;26.260;2022-08-30T05:28:32;15.95;;;6.18;;
45208;SDS011;30951;43.994;26.260;2022-08-30T05:30:59;18.15;;;6.70;;
45208;SDS011;30951;43.994;26.260;2022-08-30T05:33:24;17.88;;;6.10;;
45208;SDS011;30951;43.994;26.260;2022-08-30T05:35:50;19.52;;;6.22;;
45208;SDS011;30951;43.994;26.260;2022-08-30T05:38:15;16.60;;;6.18;;
45208;SDS011;30951;43.994;26.260;2022-08-30T05:40:42;11.85;;;6.15;;
45208;SDS011;30951;43.994;26.260;2022-08-30T05:43:08;13.77;;;5.90;;
45208;SDS011;30951;43.994;26.260;2022-08-30T05:45:35;21.63;;;6.25;;
45208;SDS011;30951;43.994;26.260;2022-08-30T05:48:01;18.73;;;6.40;;
45208;SDS011;30951;43.994;26.260;2022-08-30T05:50:27;15.68;;;5.82;;
45208;SDS011;30951;43.994;26.260;2022-08-30T05:52:52;14.75;;;5.68;;
45208;SDS011;30951;43.994;26.260;2022-08-30T05:55:18;13.27;;;5.82;;
45208;SDS011;30951;43.994;26.260;2022-08-30T05:57:43;27.75;;;6.50;;
45208;SDS011;30951;43.994;26.260;2022-08-30T06:00:10;13.18;;;5.40;;
45208;SDS011;30951;43.994;26.260;2022-08-30T06:02:39;12.82;;;6.75;;
45208;SDS011;30951;43.994;26.260;2022-08-30T06:05:05;13.05;;;5.50;;
45208;SDS011;30951;43.994;26.260;2022-08-30T06:07:31;15.18;;;5.10;;
45208;SDS011;30951;43.994;26.260;2022-08-30T06:09:57;14.65;;;5.75;;
45208;SDS011;30951;43.994;26.260;2022-08-30T06:12:22;19.83;;;5.68;;
45208;SDS011;30951;43.994;26.260;2022-08-30T06:14:48;22.40;;;6.38;;
45208;SDS011;30951;43.994;26.260;2022-08-30T06:17:13;13.68;;;5.82;;
45208;SDS011;30951;43.994;26.260;2022-08-30T06:19:39;15.07;;;6.13;;
45208;SDS011;30951;43.994;26.260;2022-08-30T06:22:04;20.55;;;5.65;;
45208;SDS011;30951;43.994;26.260;2022-08-30T06:24:30;15.88;;;6.07;;
45208;SDS011;30951;43.994;26.260;2022-08-30T06:26:56;15.38;;;6.20;;
45208;SDS011;30951;43.994;26.260;2022-08-30T06:29:21;27.08;;;6.25;;
45208;SDS011;30951;43.994;26.260;2022-08-30T06:31:47;14.00;;;5.97;;
45208;SDS011;30951;43.994;26.260;2022-08-30T06:34:13;18.42;;;6.05;;
45208;SDS011;30951;43.994;26.260;2022-08-30T06:36:40;18.77;;;6.38;;
45208;SDS011;30951;43.994;26.260;2022-08-30T06:39:06;16.60;;;5.65;;
45208;SDS011;30951;43.994;26.260;2022-08-30T06:41:32;15.18;;;5.55;;
45208;SDS011;30951;43.994;26.260;2022-08-30T06:44:00;22.42;;;6.05;;
45208;SDS011;30951;43.994;26.260;2022-08-30T06:46:27;13.93;;;4.75;;
45208;SDS011;30951;43.994;26.260;2022-08-30T06:48:55;34.95;;;6.38;;
45208;SDS011;30951;43.994;26.260;2022-08-30T06:51:22;14.30;;;5.15;;
45208;SDS011;30951;43.994;26.260;2022-08-30T06:53:50;18.52;;;5.63;;
45208;SDS011;30951;43.994;26.260;2022-08-30T06:56:16;14.43;;;4.90;;
45208;SDS011;30951;43.994;26.260;2022-08-30T06:58:42;26.65;;;6.00;;
45208;SDS011;30951;43.994;26.260;2022-08-30T07:01:13;32.05;;;7.35;;
45208;SDS011;30951;43.994;26.260;2022-08-30T07:03:40;27.33;;;6.20;;
45208;SDS011;30951;43.994;26.260;2022-08-30T07:06:07;18.30;;;5.32;;
45208;SDS011;30951;43.994;26.260;2022-08-30T07:08:33;69.93;;;8.70;;
45208;SDS011;30951;43.994;26.260;2022-08-30T07:10:59;23.48;;;4.90;;
45208;SDS011;30951;43.994;26.260;2022-08-30T07:13:25;15.70;;;4.63;;
45208;SDS011;30951;43.994;26.260;2022-08-30T07:15:52;21.38;;;4.97;;
45208;SDS011;30951;43.994;26.260;2022-08-30T07:18:17;15.93;;;4.82;;
45208;SDS011;30951;43.994;26.260;2022-08-30T07:21:07;17.55;;;5.07;;
45208;SDS011;30951;43.994;26.260;2022-08-30T07:23:34;19.38;;;5.15;;
45208;SDS011;30951;43.994;26.260;2022-08-30T07:26:02;27.23;;;5.45;;
45208;SDS011;30951;43.994;26.260;2022-08-30T07:28:29;23.42;;;5.05;;
45208;SDS011;30951;43.994;26.260;2022-08-30T07:30:55;27.40;;;5.65;;
45208;SDS011;30951;43.994;26.260;2022-08-30T07:33:21;25.77;;;5.68;;
45208;SDS011;30951;43.994;26.260;2022-08-30T07:35:46;23.80;;;5.07;;
45208;SDS011;30951;43.994;26.260;2022-08-30T07:38:12;33.35;;;5.75;;
45208;SDS011;30951;43.994;26.260;2022-08-30T07:40:38;22.75;;;5.78;;
45208;SDS011;30951;43.994;26.260;2022-08-30T07:43:04;20.67;;;4.88;;
45208;SDS011;30951;43.994;26.260;2022-08-30T07:45:29;16.20;;;4.80;;
45208;SDS011;30951;43.994;26.260;2022-08-30T07:47:55;19.27;;;5.13;;
45208;SDS011;30951;43.994;26.260;2022-08-30T07:50:22;16.40;;;4.82;;
45208;SDS011;30951;43.994;26.260;2022-08-30T07:52:47;26.70;;;5.22;;
45208;SDS011;30951;43.994;26.260;2022-08-30T07:55:13;18.30;;;4.90;;
45208;SDS011;30951;43.994;26.260;2022-08-30T07:57:38;21.45;;;4.70;;
45208;SDS011;30951;43.994;26.260;2022-08-30T08:00:04;22.33;;;5.03;;
45208;SDS011;30951;43.994;26.260;2022-08-30T08:02:30;25.63;;;5.57;;
45208;SDS011;30951;43.994;26.260;2022-08-30T08:04:56;18.13;;;4.88;;
45208;SDS011;30951;43.994;26.260;2022-08-30T08:07:22;19.73;;;5.57;;
45208;SDS011;30951;43.994;26.260;2022-08-30T08:09:48;19.40;;;4.63;;
45208;SDS011;30951;43.994;26.260;2022-08-30T08:12:13;15.55;;;4.35;;
45208;SDS011;30951;43.994;26.260;2022-08-30T08:14:39;21.02;;;4.63;;
45208;SDS011;30951;43.994;26.260;2022-08-30T08:17:05;21.42;;;5.00;;
45208;SDS011;30951;43.994;26.260;2022-08-30T08:19:31;18.17;;;4.63;;
45208;SDS011;30951;43.994;26.260;2022-08-30T08:21:57;17.00;;;5.20;;
45208;SDS011;30951;43.994;26.260;2022-08-30T08:24:27;13.75;;;4.85;;
45208;SDS011;30951;43.994;26.260;2022-08-30T08:26:53;20.60;;;4.82;;
45208;SDS011;30951;43.994;26.260;2022-08-30T08:29:20;20.25;;;5.13;;
45208;SDS011;30951;43.994;26.260;2022-08-30T08:31:46;20.50;;;4.55;;
45208;SDS011;30951;43.994;26.260;2022-08-30T08:34:12;24.73;;;5.00;;
45208;SDS011;30951;43.994;26.260;2022-08-30T08:36:38;21.00;;;4.70;;
45208;SDS011;30951;43.994;26.260;2022-08-30T08:39:05;21.85;;;4.80;;
45208;SDS011;30951;43.994;26.260;2022-08-30T08:49:29;20.77;;;5.25;;
45208;SDS011;30951;43.994;26.260;2022-08-30T08:51:56;17.45;;;5.25;;
45208;SDS011;30951;43.994;26.260;2022-08-30T08:57:26;21.50;;;5.38;;
45208;SDS011;30951;43.994;26.260;2022-08-30T08:59:57;17.50;;;4.80;;
45208;SDS011;30951;43.994;26.260;2022-08-30T09:04:53;20.70;;;5.18;;
45208;SDS011;30951;43.994;26.260;2022-08-30T09:07:25;13.48;;;4.70;;
45208;SDS011;30951;43.994;26.260;2022-08-30T09:09:56;18.27;;;5.55;;
45208;SDS011;30951;43.994;26.260;2022-08-30T09:12:24;20.80;;;4.95;;
45208;SDS011;30951;43.994;26.260;2022-08-30T09:15:02;15.68;;;4.65;;
45208;SDS011;30951;43.994;26.260;2022-08-30T09:17:56;18.25;;;4.80;;
45208;SDS011;30951;43.994;26.260;2022-08-30T09:20:28;16.67;;;3.95;;
45208;SDS011;30951;43.994;26.260;2022-08-30T09:22:59;15.63;;;4.68;;
45208;SDS011;30951;43.994;26.260;2022-08-30T09:25:42;31.08;;;4.50;;
45208;SDS011;30951;43.994;26.260;2022-08-30T09:31:21;15.40;;;4.32;;
45208;SDS011;30951;43.994;26.260;2022-08-30T09:34:07;18.73;;;4.70;;
45208;SDS011;30951;43.994;26.260;2022-08-30T09:36:39;22.38;;;4.53;;
45208;SDS011;30951;43.994;26.260;2022-08-30T09:39:13;15.57;;;4.10;;
45208;SDS011;30951;43.994;26.260;2022-08-30T09:41:40;18.58;;;5.38;;
45208;SDS011;30951;43.994;26.260;2022-08-30T09:44:10;18.70;;;4.65;;
45208;SDS011;30951;43.994;26.260;2022-08-30T10:00:21;22.23;;;4.82;;
45208;SDS011;30951;43.994;26.260;2022-08-30T10:08:24;23.85;;;4.28;;
45208;SDS011;30951;43.994;26.260;2022-08-30T10:11:08;22.40;;;4.10;;
45208;SDS011;30951;43.994;26.260;2022-08-30T10:13:49;21.20;;;5.07;;
45208;SDS011;30951;43.994;26.260;2022-08-30T10:24:40;16.13;;;4.32;;
45208;SDS011;30951;43.994;26.260;2022-08-30T10:27:09;20.00;;;4.20;;
45208;SDS011;30951;43.994;26.260;2022-08-30T10:29:52;16.80;;;4.20;;
45208;SDS011;30951;43.994;26.260;2022-08-30T10:37:47;17.52;;;4.03;;
45208;SDS011;30951;43.994;26.260;2022-08-30T10:43:38;19.08;;;3.63;;
45208;SDS011;30951;43.994;26.260;2022-08-30T10:46:10;23.45;;;4.93;;
45208;SDS011;30951;43.994;26.260;2022-08-30T10:48:42;17.88;;;3.97;;
45208;SDS011;30951;43.994;26.260;2022-08-30T10:51:09;18.63;;;4.40;;
45208;SDS011;30951;43.994;26.260;2022-08-30T10:56:42;17.30;;;4.03;;
45208;SDS011;30951;43.994;26.260;2022-08-30T10:59:08;15.23;;;3.85;;
45208;SDS011;30951;43.994;26.260;2022-08-30T11:14:27;16.73;;;3.80;;
45208;SDS011;30951;43.994;26.260;2022-08-30T11:16:54;19.27;;;4.38;;
45208;SDS011;30951;43.994;26.260;2022-08-30T11:19:25;13.25;;;3.95;;
45208;SDS011;30951;43.994;26.260;2022-08-30T11:21:52;21.65;;;4.25;;
45208;SDS011;30951;43.994;26.260;2022-08-30T11:24:59;27.38;;;4.63;;
45208;SDS011;30951;43.994;26.260;2022-08-30T11:27:51;16.73;;;4.03;;
45208;SDS011;30951;43.994;26.260;2022-08-30T11:35:47;18.77;;;4.15;;
45208;SDS011;30951;43.994;26.260;2022-08-30T11:38:58;29.33;;;4.47;;
45208;SDS011;30951;43.994;26.260;2022-08-30T11:56:59;27.65;;;4.40;;
45208;SDS011;30951;43.994;26.260;2022-08-30T12:08:06;14.05;;;3.70;;
45208;SDS011;30951;43.994;26.260;2022-08-30T12:16:07;24.48;;;3.80;;
45208;SDS011;30951;43.994;26.260;2022-08-30T12:23:50;18.55;;;3.40;;
45208;SDS011;30951;43.994;26.260;2022-08-30T12:26:27;17.42;;;3.55;;
45208;SDS011;30951;43.994;26.260;2022-08-30T12:31:30;21.88;;;3.58;;
45208;SDS011;30951;43.994;26.260;2022-08-30T12:33:57;19.33;;;3.92;;
45208;SDS011;30951;43.994;26.260;2022-08-30T12:36:37;15.10;;;4.25;;
45208;SDS011;30951;43.994;26.260;2022-08-30T12:41:30;28.48;;;3.75;;
45208;SDS011;30951;43.994;26.260;2022-08-30T12:43:55;12.15;;;3.47;;
45208;SDS011;30951;43.994;26.260;2022-08-30T12:46:23;15.98;;;3.55;;
45208;SDS011;30951;43.994;26.260;2022-08-30T12:48:49;23.92;;;4.30;;
45208;SDS011;30951;43.994;26.260;2022-08-30T12:54:05;19.65;;;4.93;;
45208;SDS011;30951;43.994;26.260;2022-08-30T12:56:51;26.33;;;4.10;;
45208;SDS011;30951;43.994;26.260;2022-08-30T12:59:37;23.92;;;3.80;;
45208;SDS011;30951;43.994;26.260;2022-08-30T13:02:23;18.15;;;3.85;;
45208;SDS011;30951;43.994;26.260;2022-08-30T13:04:51;23.23;;;4.03;;
45208;SDS011;30951;43.994;26.260;2022-08-30T13:10:15;27.65;;;3.95;;
45208;SDS011;30951;43.994;26.260;2022-08-30T13:12:57;31.00;;;4.47;;
45208;SDS011;30951;43.994;26.260;2022-08-30T13:15:28;17.05;;;3.80;;
45208;SDS011;30951;43.994;26.260;2022-08-30T13:18:10;14.70;;;3.60;;
45208;SDS011;30951;43.994;26.260;2022-08-30T13:20:35;12.52;;;4.40;;
45208;SDS011;30951;43.994;26.260;2022-08-30T13:23:08;13.20;;;3.53;;
45208;SDS011;30951;43.994;26.260;2022-08-30T13:25:35;22.45;;;4.20;;
45208;SDS011;30951;43.994;26.260;2022-08-30T13:28:03;21.33;;;4.28;;
45208;SDS011;30951;43.994;26.260;2022-08-30T13:30:30;19.48;;;3.88;;
45208;SDS011;30951;43.994;26.260;2022-08-30T13:32:55;14.93;;;3.80;;
45208;SDS011;30951;43.994;26.260;2022-08-30T13:35:22;23.95;;;4.22;;
45208;SDS011;30951;43.994;26.260;2022-08-30T13:37:48;24.42;;;3.85;;
45208;SDS011;30951;43.994;26.260;2022-08-30T13:40:14;21.85;;;4.47;;
45208;SDS011;30951;43.994;26.260;2022-08-30T13:42:41;14.52;;;3.50;;
45208;SDS011;30951;43.994;26.260;2022-08-30T13:45:10;20.60;;;4.30;;
45208;SDS011;30951;43.994;26.260;2022-08-30T13:47:37;17.65;;;3.70;;
45208;SDS011;30951;43.994;26.260;2022-08-30T13:50:03;16.95;;;3.92;;
45208;SDS011;30951;43.994;26.260;2022-08-30T13:52:29;15.85;;;3.83;;
45208;SDS011;30951;43.994;26.260;2022-08-30T13:54:55;18.80;;;3.80;;
45208;SDS011;30951;43.994;26.260;2022-08-30T13:57:22;18.60;;;3.50;;
45208;SDS011;30951;43.994;26.260;2022-08-30T13:59:49;30.80;;;4.20;;
45208;SDS011;30951;43.994;26.260;2022-08-30T14:02:15;14.50;;;3.42;;
45208;SDS011;30951;43.994;26.260;2022-08-30T14:04:40;25.77;;;4.30;;
45208;SDS011;30951;43.994;26.260;2022-08-30T14:07:06;18.92;;;3.60;;
45208;SDS011;30951;43.994;26.260;2022-08-30T14:09:31;21.17;;;3.55;;
45208;SDS011;30951;43.994;26.260;2022-08-30T14:11:57;24.58;;;3.58;;
45208;SDS011;30951;43.994;26.260;2022-08-30T14:14:22;17.02;;;3.22;;
45208;SDS011;30951;43.994;26.260;2022-08-30T14:16:48;14.65;;;3.55;;
45208;SDS011;30951;43.994;26.260;2022-08-30T14:19:14;19.55;;;3.35;;
45208;SDS011;30951;43.994;26.260;2022-08-30T14:21:40;21.10;;;3.38;;
45208;SDS011;30951;43.994;26.260;2022-08-30T14:24:06;20.58;;;3.00;;
45208;SDS011;30951;43.994;26.260;2022-08-30T14:26:36;21.27;;;3.40;;
45208;SDS011;30951;43.994;26.260;2022-08-30T14:29:04;24.85;;;4.15;;
45208;SDS011;30951;43.994;26.260;2022-08-30T14:31:31;19.67;;;4.13;;
45208;SDS011;30951;43.994;26.260;2022-08-30T14:33:57;20.00;;;3.63;;
45208;SDS011;30951;43.994;26.260;2022-08-30T14:36:22;11.85;;;3.63;;
45208;SDS011;30951;43.994;26.260;2022-08-30T14:38:48;21.15;;;3.40;;
45208;SDS011;30951;43.994;26.260;2022-08-30T14:41:13;17.75;;;3.67;;
45208;SDS011;30951;43.994;26.260;2022-08-30T14:43:39;15.25;;;3.67;;
45208;SDS011;30951;43.994;26.260;2022-08-30T14:46:05;29.05;;;3.83;;
45208;SDS011;30951;43.994;26.260;2022-08-30T14:48:30;16.02;;;2.47;;
45208;SDS011;30951;43.994;26.260;2022-08-30T14:50:56;16.45;;;2.88;;
45208;SDS011;30951;43.994;26.260;2022-08-30T14:53:21;16.27;;;3.78;;
45208;SDS011;30951;43.994;26.260;2022-08-30T14:55:47;20.83;;;3.22;;
45208;SDS011;30951;43.994;26.260;2022-08-30T14:58:12;14.35;;;3.55;;
45208;SDS011;30951;43.994;26.260;2022-08-30T15:00:41;15.02;;;3.53;;
45208;SDS011;30951;43.994;26.260;2022-08-30T15:03:13;15.48;;;3.22;;
45208;SDS011;30951;43.994;26.260;2022-08-30T15:05:39;19.90;;;3.38;;
45208;SDS011;30951;43.994;26.260;2022-08-30T15:08:05;16.50;;;3.75;;
45208;SDS011;30951;43.994;26.260;2022-08-30T15:10:30;16.50;;;3.10;;
45208;SDS011;30951;43.994;26.260;2022-08-30T15:12:56;21.83;;;3.83;;
45208;SDS011;30951;43.994;26.260;2022-08-30T15:15:21;14.32;;;3.33;;
45208;SDS011;30951;43.994;26.260;2022-08-30T15:17:47;25.35;;;3.45;;
45208;SDS011;30951;43.994;26.260;2022-08-30T15:20:13;19.67;;;4.03;;
45208;SDS011;30951;43.994;26.260;2022-08-30T15:22:42;18.37;;;3.47;;
45208;SDS011;30951;43.994;26.260;2022-08-30T15:25:08;19.75;;;3.00;;
45208;SDS011;30951;43.994;26.260;2022-08-30T15:27:34;18.98;;;3.40;;
45208;SDS011;30951;43.994;26.260;2022-08-30T15:29:59;27.58;;;3.45;;
45208;SDS011;30951;43.994;26.260;2022-08-30T15:32:25;19.77;;;3.85;;
45208;SDS011;30951;43.994;26.260;2022-08-30T15:34:50;14.85;;;3.40;;
45208;SDS011;30951;43.994;26.260;2022-08-30T15:37:16;21.17;;;3.83;;
45208;SDS011;30951;43.994;26.260;2022-08-30T15:42:14;22.13;;;3.95;;
45208;SDS011;30951;43.994;26.260;2022-08-30T15:44:40;23.90;;;4.00;;
45208;SDS011;30951;43.994;26.260;2022-08-30T15:47:06;22.08;;;4.15;;
45208;SDS011;30951;43.994;26.260;2022-08-30T15:49:31;17.80;;;3.70;;
45208;SDS011;30951;43.994;26.260;2022-08-30T15:52:00;25.80;;;4.18;;
45208;SDS011;30951;43.994;26.260;2022-08-30T15:54:27;22.80;;;3.78;;
45208;SDS011;30951;43.994;26.260;2022-08-30T15:56:53;29.48;;;4.35;;
45208;SDS011;30951;43.994;26.260;2022-08-30T15:59:23;53.35;;;5.47;;
45208;SDS011;30951;43.994;26.260;2022-08-30T16:01:49;40.67;;;5.03;;
45208;SDS011;30951;43.994;26.260;2022-08-30T16:04:15;61.15;;;5.78;;
45208;SDS011;30951;43.994;26.260;2022-08-30T16:06:41;57.67;;;6.10;;
45208;SDS011;30951;43.994;26.260;2022-08-30T16:09:07;37.75;;;5.30;;
45208;SDS011;30951;43.994;26.260;2022-08-30T16:11:33;56.78;;;5.68;;
45208;SDS011;30951;43.994;26.260;2022-08-30T16:13:59;33.53;;;4.78;;
45208;SDS011;30951;43.994;26.260;2022-08-30T16:16:25;29.05;;;4.70;;
45208;SDS011;30951;43.994;26.260;2022-08-30T16:18:51;28.10;;;6.07;;
45208;SDS011;30951;43.994;26.260;2022-08-30T16:21:18;38.63;;;7.45;;
45208;SDS011;30951;43.994;26.260;2022-08-30T16:23:45;24.92;;;5.93;;
45208;SDS011;30951;43.994;26.260;2022-08-30T16:26:11;44.65;;;8.00;;